Terminal Aerodrome Forecast
Issued by NWS Sterling, VA

Current Version | Previous Version | Graphics & Text | Print | Product List | Glossary On
Versions: 1 2 3 4 5 6 7 8 9 10 11 12 13 14 15 16 17 18 19 20 21 22 23
000
FTUS41 KLWX 272300
TAFIAD
TAF
KIAD 272332Z 2800/2906 27004KT P6SM FEW140 SCT250
     FM280700 33005KT P6SM SCT250
     FM280900 35005KT 5SM BR FEW025 FEW100
     FM281000 34005KT P6SM FEW025 FEW100
     FM281600 32009KT P6SM FEW100
     FM290000 VRB03KT P6SM FEW050=

USA.gov is the U.S. government's official web portal to all federal, state and local government web resources and services.